Prevelis — SYDL — position and weather

sailwx.info

Track history (hours):
 
Tides and Currents Weather Stations Pressure Air Temp Water Temp Dewpoint Dewpoint Depression Visibility Wind Speed Wind Dir Waves Ship Positions

Prevelis

Last reported at 2014-Nov-28 15:33 UTC. Time now 2014-Nov-28 15:49 UTC.
Position N 37°57' E 023°38'.

Length 143 m; draft 5.5 m.

Type: Passenger vessel. MMSI: 239297000.

Date/timePositionNaut miles runAvg speedWind from/ knotsBaromVisibWave heightAir tempDewpointWater temp
2014-Nov-28 15:33N 37°57' E 023°38'0 0.0
2014-Nov-28 14:33N 37°57' E 023°38'0 0.0
2014-Nov-28 13:33N 37°57' E 023°38'0 0.0
2014-Nov-28 12:33N 37°57' E 023°38'0 0.0
2014-Nov-28 11:33N 37°57' E 023°38'0 0.0
2014-Nov-28 10:33N 37°57' E 023°38'0 0.0
2014-Nov-28 09:33N 37°57' E 023°38'0 0.0
2014-Nov-28 08:33N 37°57' E 023°38'0 0.0
2014-Nov-28 07:33N 37°57' E 023°38'0 0.0
2014-Nov-28 06:34N 37°57' E 023°38'0 0.0
2014-Nov-28 05:33N 37°57' E 023°38'0 0.0
2014-Nov-28 04:34N 37°57' E 023°38'0 0.0
2014-Nov-28 03:33N 37°57' E 023°38'1010.1
2014-Nov-28 02:34N 37°47' E 023°41'5317.7
2014-Nov-27 23:33N 37°00' E 024°13'2017.7
2014-Nov-27 22:27N 36°43' E 024°25'5 5.5
2014-Nov-27 21:30N 36°47' E 024°30'1817.9
2014-Nov-27 20:29N 36°37' E 024°50'1617.9
2014-Nov-27 19:34N 36°29' E 025°07'1615.8
2014-Nov-27 18:34N 36°23' E 025°26'2 2.5
2014-Nov-27 17:33N 36°23' E 025°23'1313.2
2014-Nov-27 16:33N 36°20' E 025°39'6 6.3
2014-Nov-27 15:34N 36°19' E 025°46'1817.5
2014-Nov-27 14:33N 36°06' E 026°01'1817.6
2014-Nov-27 13:32N 35°54' E 026°18'9 0.3
2014-Nov-26 08:25N 36°03' E 026°13'1618.1
2014-Nov-26 07:33N 36°15' E 026°01'1312.8
2014-Nov-26 06:32N 36°20' E 025°46'1616.1
2014-Nov-26 05:33N 36°18' E 025°27'5 5.0
2014-Nov-26 04:33N 36°23' E 025°26'7 7.3
2014-Nov-26 03:33N 36°23' E 025°17'1817.7
2014-Nov-26 02:33N 36°33' E 024°58'1817.7
2014-Nov-26 01:33N 36°42' E 024°40'1210.8
2014-Nov-26 00:29N 36°43' E 024°25'8 8.4
2014-Nov-25 23:33N 36°50' E 024°20'5817.7
2014-Nov-25 20:18N 37°40' E 023°43'1317.3
2014-Nov-25 19:33N 37°52' E 023°37'5 5.4
2014-Nov-25 18:33N 37°57' E 023°38'0 0.0
2014-Nov-25 17:33N 37°57' E 023°38'0 0.0
2014-Nov-25 16:33N 37°57' E 023°38'0 0.0
2014-Nov-25 15:33N 37°57' E 023°38'0 0.0
2014-Nov-25 14:33N 37°57' E 023°38'0 0.0
2014-Nov-25 13:33N 37°57' E 023°38'0 0.0
2014-Nov-25 12:33N 37°57' E 023°38'0 0.0
2014-Nov-25 11:33N 37°57' E 023°38'0 0.0
2014-Nov-25 10:33N 37°57' E 023°38'0 0.0
2014-Nov-25 09:33N 37°57' E 023°38'0 0.0
2014-Nov-25 08:33N 37°57' E 023°38'0 0.0
2014-Nov-25 07:33N 37°57' E 023°38'0 0.0
2014-Nov-25 06:33N 37°57' E 023°38'0 0.0
2014-Nov-25 05:33N 37°57' E 023°38'0 0.0
2014-Nov-25 04:33N 37°57' E 023°38'0 0.0
2014-Nov-25 03:33N 37°57' E 023°38'0 0.0
2014-Nov-25 02:33N 37°57' E 023°38'0 0.0
2014-Nov-25 01:33N 37°57' E 023°38'0 0.0
2014-Nov-25 00:33N 37°57' E 023°38'0 0.0
2014-Nov-24 23:33N 37°57' E 023°38'0 0.0
2014-Nov-24 22:33N 37°57' E 023°38'0 0.0
2014-Nov-24 21:33N 37°57' E 023°38'0 0.0
2014-Nov-24 20:33N 37°57' E 023°38'0 0.0
2014-Nov-24 19:33N 37°57' E 023°38'0 0.0
2014-Nov-24 18:33N 37°57' E 023°38'0 0.0
2014-Nov-24 17:33N 37°57' E 023°38'0 0.0
2014-Nov-24 16:33N 37°57' E 023°38'0 0.0
2014-Nov-24 15:33N 37°57' E 023°38'0 0.0
2014-Nov-24 14:33N 37°57' E 023°38'0 0.0
2014-Nov-24 13:33N 37°57' E 023°38'0 0.0
2014-Nov-24 12:33N 37°57' E 023°38'0 0.0
2014-Nov-24 11:33N 37°57' E 023°38'0 0.0
2014-Nov-24 10:33N 37°57' E 023°38'0 0.3
2014-Nov-24 09:34N 37°57' E 023°38'1515.3
2014-Nov-24 08:33N 37°42' E 023°45'5117.0
2014-Nov-24 05:33N 36°57' E 024°15'1616.4
2014-Nov-24 04:33N 36°43' E 024°26'6 5.7
2014-Nov-24 03:33N 36°48' E 024°30'1716.8
2014-Nov-24 02:32N 36°38' E 024°48'1616.8
2014-Nov-24 01:33N 36°29' E 025°05'1616.1
2014-Nov-24 00:33N 36°23' E 025°23'2 2.3
2014-Nov-23 23:33N 36°23' E 025°26'7 6.6
2014-Nov-23 22:33N 36°19' E 025°32'1111.0
2014-Nov-23 21:32N 36°21' E 025°46'1515.2
2014-Nov-23 20:33N 36°08' E 025°37'1615.9
2014-Nov-23 19:33N 35°53' E 025°31'11 0.3
2014-Nov-22 06:19N 35°43' E 025°25'1418.3
2014-Nov-22 05:33N 35°56' E 025°31'1818.3
2014-Nov-22 04:33N 36°12' E 025°41'8 8.1
2014-Nov-22 03:33N 36°20' E 025°40'1616.2
2014-Nov-22 02:33N 36°22' E 025°20'5 4.8
2014-Nov-22 01:33N 36°23' E 025°26'1110.7
2014-Nov-22 00:33N 36°26' E 025°13'1818.2
2014-Nov-21 23:33N 36°35' E 024°53'1717.6
2014-Nov-21 22:33N 36°44' E 024°35'7 6.8
2014-Nov-21 21:33N 36°43' E 024°27'9 9.2
2014-Nov-21 20:33N 36°51' E 024°19'5617.7
2014-Nov-21 17:22N 37°39' E 023°43'1417.0
2014-Nov-21 16:33N 37°52' E 023°37'5 5.1
2014-Nov-21 15:33N 37°57' E 023°38'0 0.0
2014-Nov-21 14:33N 37°57' E 023°38'0 0.0
2014-Nov-21 13:33N 37°57' E 023°38'0 0.0
2014-Nov-21 12:33N 37°57' E 023°38'0 0.0
2014-Nov-21 11:33N 37°57' E 023°38'0 0.0
2014-Nov-21 10:33N 37°57' E 023°38'0 0.0
2014-Nov-21 09:33N 37°57' E 023°38'0 0.0
2014-Nov-21 08:33N 37°57' E 023°38'0 0.0
2014-Nov-21 07:34N 37°57' E 023°38'0 0.0
2014-Nov-21 06:33N 37°57' E 023°38'0 0.0
2014-Nov-21 05:33N 37°57' E 023°38'0 0.0
2014-Nov-21 04:33N 37°57' E 023°38'0 0.0
2014-Nov-21 03:32N 37°57' E 023°38'1211.9
2014-Nov-21 02:33N 37°46' E 023°42'5217.2
2014-Nov-20 23:33N 36°60' E 024°12'1817.2
2014-Nov-20 22:31N 36°45' E 024°24'6 5.7
2014-Nov-20 21:29N 36°47' E 024°31'1717.9
2014-Nov-20 20:33N 36°38' E 024°48'1717.5
2014-Nov-20 19:34N 36°28' E 025°07'1615.8
2014-Nov-20 18:34N 36°23' E 025°25'2 1.7
2014-Nov-20 17:33N 36°23' E 025°23'1211.6
2014-Nov-20 16:33N 36°19' E 025°37'9 9.2
2014-Nov-20 15:33N 36°16' E 025°48'1717.1
2014-Nov-20 14:33N 36°04' E 026°02'6 0.2
2014-Nov-19 08:27N 36°01' E 026°08'1617.7
2014-Nov-19 07:33N 36°11' E 025°54'1312.7
2014-Nov-19 06:34N 36°21' E 025°43'1716.9
2014-Nov-19 05:33N 36°20' E 025°22'4 4.2
2014-Nov-19 04:33N 36°23' E 025°26'1110.6
2014-Nov-19 03:33N 36°25' E 025°13'1818.0
2014-Nov-19 02:33N 36°34' E 024°54'1717.3
2014-Nov-19 01:33N 36°44' E 024°36'7 7.2
2014-Nov-19 00:33N 36°43' E 024°27'1110.7
2014-Nov-18 23:33N 36°52' E 024°18'1717.3
2014-Nov-18 22:33N 37°06' E 024°07'2017.3
2014-Nov-18 21:26N 37°23' E 023°55'1917.0
2014-Nov-18 20:19N 37°40' E 023°43'1316.9
2014-Nov-18 19:33N 37°52' E 023°37'5 5.3
2014-Nov-18 18:33N 37°57' E 023°38'0 0.0
2014-Nov-18 17:33N 37°57' E 023°38'0 0.0
2014-Nov-18 16:33N 37°57' E 023°38'0 0.0
2014-Nov-18 15:33N 37°57' E 023°38'  
Track history (hours):
 
Tides and Currents Weather Stations Pressure Air Temp Water Temp Dewpoint Dewpoint Depression Visibility Wind Speed Wind Dir Waves Ship Positions

Prevelis

Last reported at 2014-Nov-28 15:33 UTC. Time now 2014-Nov-28 15:49 UTC.
Position N 37°57' E 023°38'.

Length 143 m; draft 5.5 m.

Type: Passenger vessel. MMSI: 239297000.

Date/timePositionNaut miles runAvg speedWind from/ knotsBaromVisibWave heightAir tempDewpointWater temp
2014-Nov-28 15:33N 37°57' E 023°38'0 0.0
2014-Nov-28 14:33N 37°57' E 023°38'0 0.0
2014-Nov-28 13:33N 37°57' E 023°38'0 0.0
2014-Nov-28 12:33N 37°57' E 023°38'0 0.0
2014-Nov-28 11:33N 37°57' E 023°38'0 0.0
2014-Nov-28 10:33N 37°57' E 023°38'0 0.0
2014-Nov-28 09:33N 37°57' E 023°38'0 0.0
2014-Nov-28 08:33N 37°57' E 023°38'0 0.0
2014-Nov-28 07:33N 37°57' E 023°38'0 0.0
2014-Nov-28 06:34N 37°57' E 023°38'0 0.0
2014-Nov-28 05:33N 37°57' E 023°38'0 0.0
2014-Nov-28 04:34N 37°57' E 023°38'0 0.0
2014-Nov-28 03:33N 37°57' E 023°38'1010.1
2014-Nov-28 02:34N 37°47' E 023°41'5317.7
2014-Nov-27 23:33N 37°00' E 024°13'2017.7
2014-Nov-27 22:27N 36°43' E 024°25'5 5.5
2014-Nov-27 21:30N 36°47' E 024°30'1817.9
2014-Nov-27 20:29N 36°37' E 024°50'1617.9
2014-Nov-27 19:34N 36°29' E 025°07'1615.8
2014-Nov-27 18:34N 36°23' E 025°26'2 2.5
2014-Nov-27 17:33N 36°23' E 025°23'1313.2
2014-Nov-27 16:33N 36°20' E 025°39'6 6.3
2014-Nov-27 15:34N 36°19' E 025°46'1817.5
2014-Nov-27 14:33N 36°06' E 026°01'1817.6
2014-Nov-27 13:32N 35°54' E 026°18'9 0.3
2014-Nov-26 08:25N 36°03' E 026°13'1618.1
2014-Nov-26 07:33N 36°15' E 026°01'1312.8
2014-Nov-26 06:32N 36°20' E 025°46'1616.1
2014-Nov-26 05:33N 36°18' E 025°27'5 5.0
2014-Nov-26 04:33N 36°23' E 025°26'7 7.3
2014-Nov-26 03:33N 36°23' E 025°17'1817.7
2014-Nov-26 02:33N 36°33' E 024°58'1817.7
2014-Nov-26 01:33N 36°42' E 024°40'1210.8
2014-Nov-26 00:29N 36°43' E 024°25'8 8.4
2014-Nov-25 23:33N 36°50' E 024°20'5817.7
2014-Nov-25 20:18N 37°40' E 023°43'1317.3
2014-Nov-25 19:33N 37°52' E 023°37'5 5.4
2014-Nov-25 18:33N 37°57' E 023°38'0 0.0
2014-Nov-25 17:33N 37°57' E 023°38'0 0.0
2014-Nov-25 16:33N 37°57' E 023°38'0 0.0
2014-Nov-25 15:33N 37°57' E 023°38'0 0.0
2014-Nov-25 14:33N 37°57' E 023°38'0 0.0
2014-Nov-25 13:33N 37°57' E 023°38'0 0.0
2014-Nov-25 12:33N 37°57' E 023°38'0 0.0
2014-Nov-25 11:33N 37°57' E 023°38'0 0.0
2014-Nov-25 10:33N 37°57' E 023°38'0 0.0
2014-Nov-25 09:33N 37°57' E 023°38'0 0.0
2014-Nov-25 08:33N 37°57' E 023°38'0 0.0
2014-Nov-25 07:33N 37°57' E 023°38'0 0.0
2014-Nov-25 06:33N 37°57' E 023°38'0 0.0
2014-Nov-25 05:33N 37°57' E 023°38'0 0.0
2014-Nov-25 04:33N 37°57' E 023°38'0 0.0
2014-Nov-25 03:33N 37°57' E 023°38'0 0.0
2014-Nov-25 02:33N 37°57' E 023°38'0 0.0
2014-Nov-25 01:33N 37°57' E 023°38'0 0.0
2014-Nov-25 00:33N 37°57' E 023°38'0 0.0
2014-Nov-24 23:33N 37°57' E 023°38'0 0.0
2014-Nov-24 22:33N 37°57' E 023°38'0 0.0
2014-Nov-24 21:33N 37°57' E 023°38'0 0.0
2014-Nov-24 20:33N 37°57' E 023°38'0 0.0
2014-Nov-24 19:33N 37°57' E 023°38'0 0.0
2014-Nov-24 18:33N 37°57' E 023°38'0 0.0
2014-Nov-24 17:33N 37°57' E 023°38'0 0.0
2014-Nov-24 16:33N 37°57' E 023°38'0 0.0
2014-Nov-24 15:33N 37°57' E 023°38'0 0.0
2014-Nov-24 14:33N 37°57' E 023°38'0 0.0
2014-Nov-24 13:33N 37°57' E 023°38'0 0.0
2014-Nov-24 12:33N 37°57' E 023°38'0 0.0
2014-Nov-24 11:33N 37°57' E 023°38'0 0.0
2014-Nov-24 10:33N 37°57' E 023°38'0 0.3
2014-Nov-24 09:34N 37°57' E 023°38'1515.3
2014-Nov-24 08:33N 37°42' E 023°45'5117.0
2014-Nov-24 05:33N 36°57' E 024°15'1616.4
2014-Nov-24 04:33N 36°43' E 024°26'6 5.7
2014-Nov-24 03:33N 36°48' E 024°30'1716.8
2014-Nov-24 02:32N 36°38' E 024°48'1616.8
2014-Nov-24 01:33N 36°29' E 025°05'1616.1
2014-Nov-24 00:33N 36°23' E 025°23'2 2.3
2014-Nov-23 23:33N 36°23' E 025°26'7 6.6
2014-Nov-23 22:33N 36°19' E 025°32'1111.0
2014-Nov-23 21:32N 36°21' E 025°46'1515.2
2014-Nov-23 20:33N 36°08' E 025°37'1615.9
2014-Nov-23 19:33N 35°53' E 025°31'11 0.3
2014-Nov-22 06:19N 35°43' E 025°25'1418.3
2014-Nov-22 05:33N 35°56' E 025°31'1818.3
2014-Nov-22 04:33N 36°12' E 025°41'8 8.1
2014-Nov-22 03:33N 36°20' E 025°40'1616.2
2014-Nov-22 02:33N 36°22' E 025°20'5 4.8
2014-Nov-22 01:33N 36°23' E 025°26'1110.7
2014-Nov-22 00:33N 36°26' E 025°13'1818.2
2014-Nov-21 23:33N 36°35' E 024°53'1717.6
2014-Nov-21 22:33N 36°44' E 024°35'7 6.8
2014-Nov-21 21:33N 36°43' E 024°27'9 9.2
2014-Nov-21 20:33N 36°51' E 024°19'5617.7
2014-Nov-21 17:22N 37°39' E 023°43'1417.0
2014-Nov-21 16:33N 37°52' E 023°37'5 5.1
2014-Nov-21 15:33N 37°57' E 023°38'0 0.0
2014-Nov-21 14:33N 37°57' E 023°38'0 0.0
2014-Nov-21 13:33N 37°57' E 023°38'0 0.0
2014-Nov-21 12:33N 37°57' E 023°38'0 0.0
2014-Nov-21 11:33N 37°57' E 023°38'0 0.0
2014-Nov-21 10:33N 37°57' E 023°38'0 0.0
2014-Nov-21 09:33N 37°57' E 023°38'0 0.0
2014-Nov-21 08:33N 37°57' E 023°38'0 0.0
2014-Nov-21 07:34N 37°57' E 023°38'0 0.0
2014-Nov-21 06:33N 37°57' E 023°38'0 0.0
2014-Nov-21 05:33N 37°57' E 023°38'0 0.0
2014-Nov-21 04:33N 37°57' E 023°38'0 0.0
2014-Nov-21 03:32N 37°57' E 023°38'1211.9
2014-Nov-21 02:33N 37°46' E 023°42'5217.2
2014-Nov-20 23:33N 36°60' E 024°12'1817.2
2014-Nov-20 22:31N 36°45' E 024°24'6 5.7
2014-Nov-20 21:29N 36°47' E 024°31'1717.9
2014-Nov-20 20:33N 36°38' E 024°48'1717.5
2014-Nov-20 19:34N 36°28' E 025°07'1615.8
2014-Nov-20 18:34N 36°23' E 025°25'2 1.7
2014-Nov-20 17:33N 36°23' E 025°23'1211.6
2014-Nov-20 16:33N 36°19' E 025°37'9 9.2
2014-Nov-20 15:33N 36°16' E 025°48'1717.1
2014-Nov-20 14:33N 36°04' E 026°02'6 0.2
2014-Nov-19 08:27N 36°01' E 026°08'1617.7
2014-Nov-19 07:33N 36°11' E 025°54'1312.7
2014-Nov-19 06:34N 36°21' E 025°43'1716.9
2014-Nov-19 05:33N 36°20' E 025°22'4 4.2
2014-Nov-19 04:33N 36°23' E 025°26'1110.6
2014-Nov-19 03:33N 36°25' E 025°13'1818.0
2014-Nov-19 02:33N 36°34' E 024°54'1717.3
2014-Nov-19 01:33N 36°44' E 024°36'7 7.2
2014-Nov-19 00:33N 36°43' E 024°27'1110.7
2014-Nov-18 23:33N 36°52' E 024°18'1717.3
2014-Nov-18 22:33N 37°06' E 024°07'2017.3
2014-Nov-18 21:26N 37°23' E 023°55'1917.0
2014-Nov-18 20:19N 37°40' E 023°43'1316.9
2014-Nov-18 19:33N 37°52' E 023°37'5 5.3
2014-Nov-18 18:33N 37°57' E 023°38'0 0.0
2014-Nov-18 17:33N 37°57' E 023°38'0 0.0
2014-Nov-18 16:33N 37°57' E 023°38'0 0.0
2014-Nov-18 15:33N 37°57' E 023°38'  

Dump ship's entire track history